sensor_id;sensor_type;location;lat;lon;timestamp;P1;durP1;ratioP1;P2;durP2;ratioP2
18793;SDS011;29610;49.022;12.114;2022-08-21T00:01:52;68.07;;;27.53;;
18793;SDS011;29610;49.022;12.114;2022-08-21T00:04:21;53.10;;;25.10;;
18793;SDS011;29610;49.022;12.114;2022-08-21T00:06:55;48.73;;;23.87;;
18793;SDS011;29610;49.022;12.114;2022-08-21T00:09:24;59.43;;;24.10;;
18793;SDS011;29610;49.022;12.114;2022-08-21T00:11:53;56.73;;;24.00;;
18793;SDS011;29610;49.022;12.114;2022-08-21T00:14:21;65.13;;;27.37;;
18793;SDS011;29610;49.022;12.114;2022-08-21T00:16:57;51.60;;;23.67;;
18793;SDS011;29610;49.022;12.114;2022-08-21T00:19:27;55.33;;;24.00;;
18793;SDS011;29610;49.022;12.114;2022-08-21T00:21:55;47.50;;;22.80;;
18793;SDS011;29610;49.022;12.114;2022-08-21T00:24:25;56.20;;;25.73;;
18793;SDS011;29610;49.022;12.114;2022-08-21T00:26:54;54.00;;;23.20;;
18793;SDS011;29610;49.022;12.114;2022-08-21T00:29:24;52.00;;;23.07;;
18793;SDS011;29610;49.022;12.114;2022-08-21T00:31:53;53.17;;;23.63;;
18793;SDS011;29610;49.022;12.114;2022-08-21T00:34:21;52.90;;;23.50;;
18793;SDS011;29610;49.022;12.114;2022-08-21T00:36:50;53.90;;;23.20;;
18793;SDS011;29610;49.022;12.114;2022-08-21T00:39:18;59.90;;;26.67;;
18793;SDS011;29610;49.022;12.114;2022-08-21T00:41:47;56.07;;;25.60;;
18793;SDS011;29610;49.022;12.114;2022-08-21T00:44:15;73.30;;;25.57;;
18793;SDS011;29610;49.022;12.114;2022-08-21T00:46:45;43.70;;;22.30;;
18793;SDS011;29610;49.022;12.114;2022-08-21T00:49:14;60.47;;;24.07;;
18793;SDS011;29610;49.022;12.114;2022-08-21T00:51:47;111.43;;;25.30;;
18793;SDS011;29610;49.022;12.114;2022-08-21T00:54:19;56.10;;;22.53;;
18793;SDS011;29610;49.022;12.114;2022-08-21T00:56:54;103.60;;;26.20;;
18793;SDS011;29610;49.022;12.114;2022-08-21T00:59:27;50.47;;;23.73;;
18793;SDS011;29610;49.022;12.114;2022-08-21T01:02:04;85.93;;;24.03;;
18793;SDS011;29610;49.022;12.114;2022-08-21T01:04:35;56.67;;;22.53;;
18793;SDS011;29610;49.022;12.114;2022-08-21T01:07:04;49.63;;;22.03;;
18793;SDS011;29610;49.022;12.114;2022-08-21T01:09:33;71.93;;;26.00;;
18793;SDS011;29610;49.022;12.114;2022-08-21T01:12:03;102.50;;;25.50;;
18793;SDS011;29610;49.022;12.114;2022-08-21T01:14:32;65.00;;;21.03;;
18793;SDS011;29610;49.022;12.114;2022-08-21T01:17:02;61.03;;;22.40;;
18793;SDS011;29610;49.022;12.114;2022-08-21T01:19:33;42.13;;;19.73;;
18793;SDS011;29610;49.022;12.114;2022-08-21T01:22:03;86.80;;;23.90;;
18793;SDS011;29610;49.022;12.114;2022-08-21T01:24:32;38.27;;;19.17;;
18793;SDS011;29610;49.022;12.114;2022-08-21T01:27:02;57.87;;;20.67;;
18793;SDS011;29610;49.022;12.114;2022-08-21T01:29:33;42.60;;;19.57;;
18793;SDS011;29610;49.022;12.114;2022-08-21T01:32:10;44.10;;;18.77;;
18793;SDS011;29610;49.022;12.114;2022-08-21T01:34:44;51.47;;;19.57;;
18793;SDS011;29610;49.022;12.114;2022-08-21T01:37:17;48.30;;;19.67;;
18793;SDS011;29610;49.022;12.114;2022-08-21T01:39:47;64.00;;;21.40;;
18793;SDS011;29610;49.022;12.114;2022-08-21T01:42:16;58.33;;;20.97;;
18793;SDS011;29610;49.022;12.114;2022-08-21T01:44:45;53.70;;;19.33;;
18793;SDS011;29610;49.022;12.114;2022-08-21T01:47:14;77.43;;;20.30;;
18793;SDS011;29610;49.022;12.114;2022-08-21T01:49:44;114.20;;;24.97;;
18793;SDS011;29610;49.022;12.114;2022-08-21T01:52:13;62.13;;;19.63;;
18793;SDS011;29610;49.022;12.114;2022-08-21T01:54:43;49.43;;;19.80;;
18793;SDS011;29610;49.022;12.114;2022-08-21T01:57:20;76.97;;;20.83;;
18793;SDS011;29610;49.022;12.114;2022-08-21T01:59:51;59.03;;;21.30;;
18793;SDS011;29610;49.022;12.114;2022-08-21T02:02:20;52.10;;;20.10;;
18793;SDS011;29610;49.022;12.114;2022-08-21T02:04:49;68.83;;;22.30;;
18793;SDS011;29610;49.022;12.114;2022-08-21T02:07:17;94.40;;;23.80;;
18793;SDS011;29610;49.022;12.114;2022-08-21T02:09:47;92.97;;;24.10;;
18793;SDS011;29610;49.022;12.114;2022-08-21T02:12:16;131.63;;;25.13;;
18793;SDS011;29610;49.022;12.114;2022-08-21T02:14:44;109.93;;;25.33;;
18793;SDS011;29610;49.022;12.114;2022-08-21T02:17:13;93.47;;;24.27;;
18793;SDS011;29610;49.022;12.114;2022-08-21T02:19:41;110.23;;;25.13;;
18793;SDS011;29610;49.022;12.114;2022-08-21T02:22:10;135.67;;;28.57;;
18793;SDS011;29610;49.022;12.114;2022-08-21T02:24:40;121.97;;;26.47;;
18793;SDS011;29610;49.022;12.114;2022-08-21T02:27:22;89.57;;;22.50;;
18793;SDS011;29610;49.022;12.114;2022-08-21T02:29:53;67.70;;;22.27;;
18793;SDS011;29610;49.022;12.114;2022-08-21T02:32:24;46.27;;;21.00;;
18793;SDS011;29610;49.022;12.114;2022-08-21T02:34:53;57.77;;;22.07;;
18793;SDS011;29610;49.022;12.114;2022-08-21T02:37:22;62.53;;;21.67;;
18793;SDS011;29610;49.022;12.114;2022-08-21T02:39:52;44.97;;;20.20;;
18793;SDS011;29610;49.022;12.114;2022-08-21T02:42:22;76.20;;;23.90;;
18793;SDS011;29610;49.022;12.114;2022-08-21T02:44:50;44.53;;;21.10;;
18793;SDS011;29610;49.022;12.114;2022-08-21T02:47:18;72.50;;;22.50;;
18793;SDS011;29610;49.022;12.114;2022-08-21T02:49:47;64.23;;;21.80;;
18793;SDS011;29610;49.022;12.114;2022-08-21T02:52:15;143.57;;;25.30;;
18793;SDS011;29610;49.022;12.114;2022-08-21T02:54:44;104.40;;;22.33;;
18793;SDS011;29610;49.022;12.114;2022-08-21T02:57:13;55.70;;;20.93;;
18793;SDS011;29610;49.022;12.114;2022-08-21T02:59:43;59.10;;;20.67;;
18793;SDS011;29610;49.022;12.114;2022-08-21T03:02:12;77.37;;;20.83;;
18793;SDS011;29610;49.022;12.114;2022-08-21T03:04:41;89.77;;;22.27;;
18793;SDS011;29610;49.022;12.114;2022-08-21T03:07:12;84.63;;;20.90;;
18793;SDS011;29610;49.022;12.114;2022-08-21T03:09:41;52.83;;;19.43;;
18793;SDS011;29610;49.022;12.114;2022-08-21T03:12:21;67.60;;;20.77;;
18793;SDS011;29610;49.022;12.114;2022-08-21T03:14:53;103.90;;;21.77;;
18793;SDS011;29610;49.022;12.114;2022-08-21T03:17:21;149.80;;;23.83;;
18793;SDS011;29610;49.022;12.114;2022-08-21T03:19:56;104.40;;;19.77;;
18793;SDS011;29610;49.022;12.114;2022-08-21T03:22:25;93.33;;;20.90;;
18793;SDS011;29610;49.022;12.114;2022-08-21T03:24:56;67.77;;;19.47;;
18793;SDS011;29610;49.022;12.114;2022-08-21T03:27:25;97.50;;;22.30;;
18793;SDS011;29610;49.022;12.114;2022-08-21T03:29:57;84.37;;;20.67;;
18793;SDS011;29610;49.022;12.114;2022-08-21T03:32:25;56.27;;;18.00;;
18793;SDS011;29610;49.022;12.114;2022-08-21T03:34:54;51.60;;;18.90;;
18793;SDS011;29610;49.022;12.114;2022-08-21T03:37:23;43.10;;;18.07;;
18793;SDS011;29610;49.022;12.114;2022-08-21T03:39:52;61.03;;;21.03;;
18793;SDS011;29610;49.022;12.114;2022-08-21T03:42:21;108.33;;;20.97;;
18793;SDS011;29610;49.022;12.114;2022-08-21T03:44:50;68.97;;;19.43;;
18793;SDS011;29610;49.022;12.114;2022-08-21T03:47:20;57.87;;;19.03;;
18793;SDS011;29610;49.022;12.114;2022-08-21T03:49:49;48.50;;;18.90;;
18793;SDS011;29610;49.022;12.114;2022-08-21T03:52:18;42.97;;;19.57;;
18793;SDS011;29610;49.022;12.114;2022-08-21T03:54:47;42.63;;;18.70;;
18793;SDS011;29610;49.022;12.114;2022-08-21T03:57:16;161.10;;;24.87;;
18793;SDS011;29610;49.022;12.114;2022-08-21T03:59:45;77.93;;;20.33;;
18793;SDS011;29610;49.022;12.114;2022-08-21T04:02:15;85.90;;;20.83;;
18793;SDS011;29610;49.022;12.114;2022-08-21T04:04:48;103.40;;;22.03;;
18793;SDS011;29610;49.022;12.114;2022-08-21T04:07:17;159.60;;;22.27;;
18793;SDS011;29610;49.022;12.114;2022-08-21T04:09:45;81.77;;;20.60;;
18793;SDS011;29610;49.022;12.114;2022-08-21T04:12:14;60.00;;;20.60;;
18793;SDS011;29610;49.022;12.114;2022-08-21T04:14:42;222.93;;;24.27;;
18793;SDS011;29610;49.022;12.114;2022-08-21T04:17:11;172.60;;;23.27;;
18793;SDS011;29610;49.022;12.114;2022-08-21T04:19:41;87.17;;;19.30;;
18793;SDS011;29610;49.022;12.114;2022-08-21T04:22:09;138.23;;;21.83;;
18793;SDS011;29610;49.022;12.114;2022-08-21T04:24:38;121.20;;;23.20;;
18793;SDS011;29610;49.022;12.114;2022-08-21T04:27:06;103.57;;;21.00;;
18793;SDS011;29610;49.022;12.114;2022-08-21T04:29:35;79.87;;;21.57;;
18793;SDS011;29610;49.022;12.114;2022-08-21T04:32:05;104.83;;;19.77;;
18793;SDS011;29610;49.022;12.114;2022-08-21T04:34:34;91.63;;;20.37;;
18793;SDS011;29610;49.022;12.114;2022-08-21T04:37:04;48.27;;;18.33;;
18793;SDS011;29610;49.022;12.114;2022-08-21T04:39:32;65.03;;;20.10;;
18793;SDS011;29610;49.022;12.114;2022-08-21T04:42:01;78.63;;;20.47;;
18793;SDS011;29610;49.022;12.114;2022-08-21T04:44:31;104.30;;;18.70;;
18793;SDS011;29610;49.022;12.114;2022-08-21T04:46:59;38.30;;;16.27;;
18793;SDS011;29610;49.022;12.114;2022-08-21T04:49:28;85.90;;;18.87;;
18793;SDS011;29610;49.022;12.114;2022-08-21T04:51:57;63.27;;;16.73;;
18793;SDS011;29610;49.022;12.114;2022-08-21T04:54:28;88.07;;;16.63;;
18793;SDS011;29610;49.022;12.114;2022-08-21T04:56:58;99.30;;;18.40;;
18793;SDS011;29610;49.022;12.114;2022-08-21T04:59:33;91.20;;;18.07;;
18793;SDS011;29610;49.022;12.114;2022-08-21T05:02:08;82.63;;;19.27;;
18793;SDS011;29610;49.022;12.114;2022-08-21T05:04:39;76.93;;;16.50;;
18793;SDS011;29610;49.022;12.114;2022-08-21T05:07:14;63.13;;;17.30;;
18793;SDS011;29610;49.022;12.114;2022-08-21T05:10:09;59.07;;;14.93;;
18793;SDS011;29610;49.022;12.114;2022-08-21T05:12:40;51.07;;;16.10;;
18793;SDS011;29610;49.022;12.114;2022-08-21T05:15:10;81.80;;;17.33;;
18793;SDS011;29610;49.022;12.114;2022-08-21T05:17:41;71.53;;;18.40;;
18793;SDS011;29610;49.022;12.114;2022-08-21T05:20:19;48.40;;;17.00;;
18793;SDS011;29610;49.022;12.114;2022-08-21T05:22:47;87.50;;;20.33;;
18793;SDS011;29610;49.022;12.114;2022-08-21T05:25:17;106.87;;;19.50;;
18793;SDS011;29610;49.022;12.114;2022-08-21T05:27:49;111.70;;;18.80;;
18793;SDS011;29610;49.022;12.114;2022-08-21T05:30:18;119.83;;;19.03;;
18793;SDS011;29610;49.022;12.114;2022-08-21T05:32:47;46.93;;;17.57;;
18793;SDS011;29610;49.022;12.114;2022-08-21T05:35:16;65.37;;;18.27;;
18793;SDS011;29610;49.022;12.114;2022-08-21T05:37:44;37.27;;;18.00;;
18793;SDS011;29610;49.022;12.114;2022-08-21T05:40:13;55.97;;;19.10;;
18793;SDS011;29610;49.022;12.114;2022-08-21T05:42:50;46.50;;;18.13;;
18793;SDS011;29610;49.022;12.114;2022-08-21T05:45:22;66.70;;;19.13;;
18793;SDS011;29610;49.022;12.114;2022-08-21T05:48:09;43.83;;;18.70;;
18793;SDS011;29610;49.022;12.114;2022-08-21T05:50:42;46.57;;;19.60;;
18793;SDS011;29610;49.022;12.114;2022-08-21T05:53:13;47.17;;;19.50;;
18793;SDS011;29610;49.022;12.114;2022-08-21T05:55:43;55.83;;;19.33;;
18793;SDS011;29610;49.022;12.114;2022-08-21T05:58:14;50.93;;;19.20;;
18793;SDS011;29610;49.022;12.114;2022-08-21T06:00:48;53.83;;;21.73;;
18793;SDS011;29610;49.022;12.114;2022-08-21T06:03:20;44.00;;;19.20;;
18793;SDS011;29610;49.022;12.114;2022-08-21T06:05:51;54.00;;;19.30;;
18793;SDS011;29610;49.022;12.114;2022-08-21T06:08:20;50.10;;;20.17;;
18793;SDS011;29610;49.022;12.114;2022-08-21T06:10:52;49.53;;;20.60;;
18793;SDS011;29610;49.022;12.114;2022-08-21T06:13:24;49.63;;;17.57;;
18793;SDS011;29610;49.022;12.114;2022-08-21T06:16:00;47.50;;;19.43;;
18793;SDS011;29610;49.022;12.114;2022-08-21T06:18:35;50.47;;;19.00;;
18793;SDS011;29610;49.022;12.114;2022-08-21T06:21:05;66.73;;;20.40;;
18793;SDS011;29610;49.022;12.114;2022-08-21T06:23:34;46.20;;;18.30;;
18793;SDS011;29610;49.022;12.114;2022-08-21T06:26:03;61.17;;;19.60;;
18793;SDS011;29610;49.022;12.114;2022-08-21T06:28:36;49.97;;;19.40;;
18793;SDS011;29610;49.022;12.114;2022-08-21T06:31:09;50.30;;;18.60;;
18793;SDS011;29610;49.022;12.114;2022-08-21T06:33:41;52.10;;;18.50;;
18793;SDS011;29610;49.022;12.114;2022-08-21T06:36:10;51.53;;;18.17;;
18793;SDS011;29610;49.022;12.114;2022-08-21T06:38:39;38.90;;;17.13;;
18793;SDS011;29610;49.022;12.114;2022-08-21T06:41:17;45.10;;;17.90;;
18793;SDS011;29610;49.022;12.114;2022-08-21T06:43:53;43.40;;;19.07;;
18793;SDS011;29610;49.022;12.114;2022-08-21T06:46:25;47.83;;;18.70;;
18793;SDS011;29610;49.022;12.114;2022-08-21T06:48:57;47.80;;;19.30;;
18793;SDS011;29610;49.022;12.114;2022-08-21T06:51:25;41.97;;;17.50;;
18793;SDS011;29610;49.022;12.114;2022-08-21T06:53:54;46.23;;;18.60;;
18793;SDS011;29610;49.022;12.114;2022-08-21T06:56:25;42.57;;;18.40;;
18793;SDS011;29610;49.022;12.114;2022-08-21T06:58:54;45.77;;;18.60;;
18793;SDS011;29610;49.022;12.114;2022-08-21T07:01:24;41.63;;;18.13;;
18793;SDS011;29610;49.022;12.114;2022-08-21T07:03:54;40.33;;;18.97;;
18793;SDS011;29610;49.022;12.114;2022-08-21T07:06:23;41.00;;;17.33;;
18793;SDS011;29610;49.022;12.114;2022-08-21T07:08:52;36.00;;;16.17;;
18793;SDS011;29610;49.022;12.114;2022-08-21T07:11:24;39.40;;;17.53;;
18793;SDS011;29610;49.022;12.114;2022-08-21T07:13:55;40.20;;;17.90;;
18793;SDS011;29610;49.022;12.114;2022-08-21T07:16:24;38.23;;;17.27;;
18793;SDS011;29610;49.022;12.114;2022-08-21T07:18:53;33.90;;;16.70;;
18793;SDS011;29610;49.022;12.114;2022-08-21T07:21:21;34.43;;;15.60;;
18793;SDS011;29610;49.022;12.114;2022-08-21T07:23:51;35.57;;;16.57;;
18793;SDS011;29610;49.022;12.114;2022-08-21T07:26:21;32.87;;;15.30;;
18793;SDS011;29610;49.022;12.114;2022-08-21T07:28:51;33.40;;;15.80;;
18793;SDS011;29610;49.022;12.114;2022-08-21T07:31:22;29.00;;;14.93;;
18793;SDS011;29610;49.022;12.114;2022-08-21T07:33:52;27.90;;;13.87;;
18793;SDS011;29610;49.022;12.114;2022-08-21T07:36:22;27.93;;;13.57;;
18793;SDS011;29610;49.022;12.114;2022-08-21T07:38:51;32.70;;;16.50;;
18793;SDS011;29610;49.022;12.114;2022-08-21T07:41:21;30.07;;;14.90;;
18793;SDS011;29610;49.022;12.114;2022-08-21T07:43:51;36.10;;;14.63;;
18793;SDS011;29610;49.022;12.114;2022-08-21T07:46:21;27.73;;;12.50;;
18793;SDS011;29610;49.022;12.114;2022-08-21T07:48:50;26.60;;;13.20;;
18793;SDS011;29610;49.022;12.114;2022-08-21T07:51:20;29.63;;;14.00;;
18793;SDS011;29610;49.022;12.114;2022-08-21T07:53:55;23.67;;;11.93;;
18793;SDS011;29610;49.022;12.114;2022-08-21T07:56:25;30.80;;;14.37;;
18793;SDS011;29610;49.022;12.114;2022-08-21T07:58:54;27.67;;;14.03;;
18793;SDS011;29610;49.022;12.114;2022-08-21T08:01:25;28.80;;;14.50;;
18793;SDS011;29610;49.022;12.114;2022-08-21T08:03:54;29.67;;;13.63;;
18793;SDS011;29610;49.022;12.114;2022-08-21T08:06:23;27.10;;;13.40;;
18793;SDS011;29610;49.022;12.114;2022-08-21T08:08:52;27.70;;;13.40;;
18793;SDS011;29610;49.022;12.114;2022-08-21T08:11:20;27.67;;;14.57;;
18793;SDS011;29610;49.022;12.114;2022-08-21T08:13:50;29.83;;;15.67;;
18793;SDS011;29610;49.022;12.114;2022-08-21T08:16:19;28.33;;;15.00;;
18793;SDS011;29610;49.022;12.114;2022-08-21T08:18:49;31.20;;;14.60;;
18793;SDS011;29610;49.022;12.114;2022-08-21T08:21:18;29.37;;;14.17;;
18793;SDS011;29610;49.022;12.114;2022-08-21T08:23:47;29.87;;;14.87;;
18793;SDS011;29610;49.022;12.114;2022-08-21T08:26:16;28.57;;;14.53;;
18793;SDS011;29610;49.022;12.114;2022-08-21T08:28:44;28.60;;;13.53;;
18793;SDS011;29610;49.022;12.114;2022-08-21T08:31:14;29.47;;;15.73;;
18793;SDS011;29610;49.022;12.114;2022-08-21T08:33:43;33.47;;;16.47;;
18793;SDS011;29610;49.022;12.114;2022-08-21T08:36:14;29.90;;;15.70;;
18793;SDS011;29610;49.022;12.114;2022-08-21T08:38:45;30.00;;;15.10;;
18793;SDS011;29610;49.022;12.114;2022-08-21T08:41:16;27.17;;;14.03;;
18793;SDS011;29610;49.022;12.114;2022-08-21T08:43:57;26.67;;;14.30;;
18793;SDS011;29610;49.022;12.114;2022-08-21T08:46:33;25.63;;;13.60;;
18793;SDS011;29610;49.022;12.114;2022-08-21T08:49:10;30.23;;;14.73;;
18793;SDS011;29610;49.022;12.114;2022-08-21T08:51:52;28.67;;;13.87;;
18793;SDS011;29610;49.022;12.114;2022-08-21T08:54:27;29.40;;;14.53;;
18793;SDS011;29610;49.022;12.114;2022-08-21T08:57:01;32.00;;;16.03;;
18793;SDS011;29610;49.022;12.114;2022-08-21T08:59:36;28.83;;;15.00;;
18793;SDS011;29610;49.022;12.114;2022-08-21T09:02:09;27.73;;;13.43;;
18793;SDS011;29610;49.022;12.114;2022-08-21T09:04:41;28.90;;;15.00;;
18793;SDS011;29610;49.022;12.114;2022-08-21T09:07:16;28.70;;;14.00;;
18793;SDS011;29610;49.022;12.114;2022-08-21T09:10:03;30.57;;;15.30;;
18793;SDS011;29610;49.022;12.114;2022-08-21T09:12:45;30.90;;;14.67;;
18793;SDS011;29610;49.022;12.114;2022-08-21T09:15:27;33.40;;;15.63;;
18793;SDS011;29610;49.022;12.114;2022-08-21T09:18:18;26.70;;;14.70;;
18793;SDS011;29610;49.022;12.114;2022-08-21T09:21:07;31.93;;;15.13;;
18793;SDS011;29610;49.022;12.114;2022-08-21T09:23:52;26.20;;;13.67;;
18793;SDS011;29610;49.022;12.114;2022-08-21T09:26:29;27.67;;;14.00;;
18793;SDS011;29610;49.022;12.114;2022-08-21T09:29:14;30.50;;;16.43;;
18793;SDS011;29610;49.022;12.114;2022-08-21T09:31:49;38.10;;;16.87;;
18793;SDS011;29610;49.022;12.114;2022-08-21T09:34:24;27.30;;;14.57;;
18793;SDS011;29610;49.022;12.114;2022-08-21T09:36:55;28.77;;;15.10;;
18793;SDS011;29610;49.022;12.114;2022-08-21T09:39:27;31.70;;;16.73;;
18793;SDS011;29610;49.022;12.114;2022-08-21T09:42:20;30.73;;;16.10;;
18793;SDS011;29610;49.022;12.114;2022-08-21T09:45:05;30.10;;;15.83;;
18793;SDS011;29610;49.022;12.114;2022-08-21T09:47:40;27.27;;;15.80;;
18793;SDS011;29610;49.022;12.114;2022-08-21T09:50:10;35.40;;;15.93;;
18793;SDS011;29610;49.022;12.114;2022-08-21T09:52:45;35.47;;;16.23;;
18793;SDS011;29610;49.022;12.114;2022-08-21T09:55:26;33.33;;;16.57;;
18793;SDS011;29610;49.022;12.114;2022-08-21T09:58:19;31.10;;;15.60;;
18793;SDS011;29610;49.022;12.114;2022-08-21T10:00:56;29.20;;;17.00;;
18793;SDS011;29610;49.022;12.114;2022-08-21T10:03:32;28.43;;;15.50;;
18793;SDS011;29610;49.022;12.114;2022-08-21T10:06:05;29.97;;;16.07;;
18793;SDS011;29610;49.022;12.114;2022-08-21T10:08:38;27.43;;;15.33;;
18793;SDS011;29610;49.022;12.114;2022-08-21T10:11:10;30.20;;;17.27;;
18793;SDS011;29610;49.022;12.114;2022-08-21T10:13:47;30.37;;;17.00;;
18793;SDS011;29610;49.022;12.114;2022-08-21T10:16:30;29.03;;;15.73;;
18793;SDS011;29610;49.022;12.114;2022-08-21T10:19:13;30.07;;;16.70;;
18793;SDS011;29610;49.022;12.114;2022-08-21T10:21:57;30.13;;;16.30;;
18793;SDS011;29610;49.022;12.114;2022-08-21T10:24:44;28.13;;;15.70;;
18793;SDS011;29610;49.022;12.114;2022-08-21T10:27:30;29.70;;;17.10;;
18793;SDS011;29610;49.022;12.114;2022-08-21T10:30:12;28.53;;;15.70;;
18793;SDS011;29610;49.022;12.114;2022-08-21T10:32:50;29.23;;;16.30;;
18793;SDS011;29610;49.022;12.114;2022-08-21T10:35:36;28.47;;;16.53;;
18793;SDS011;29610;49.022;12.114;2022-08-21T10:38:26;29.37;;;16.90;;
18793;SDS011;29610;49.022;12.114;2022-08-21T10:41:47;28.23;;;14.93;;
18793;SDS011;29610;49.022;12.114;2022-08-21T10:44:49;27.23;;;15.70;;
18793;SDS011;29610;49.022;12.114;2022-08-21T10:47:42;29.13;;;17.00;;
18793;SDS011;29610;49.022;12.114;2022-08-21T10:50:25;27.57;;;15.70;;
18793;SDS011;29610;49.022;12.114;2022-08-21T10:53:05;29.80;;;17.13;;
18793;SDS011;29610;49.022;12.114;2022-08-21T10:56:01;28.07;;;15.73;;
18793;SDS011;29610;49.022;12.114;2022-08-21T10:58:42;25.30;;;14.50;;
18793;SDS011;29610;49.022;12.114;2022-08-21T11:01:29;28.90;;;15.13;;
18793;SDS011;29610;49.022;12.114;2022-08-21T11:04:09;28.50;;;14.87;;
18793;SDS011;29610;49.022;12.114;2022-08-21T11:06:45;23.77;;;13.03;;
18793;SDS011;29610;49.022;12.114;2022-08-21T11:09:22;27.13;;;13.60;;
18793;SDS011;29610;49.022;12.114;2022-08-21T11:11:56;24.93;;;14.10;;
18793;SDS011;29610;49.022;12.114;2022-08-21T11:14:39;25.43;;;13.50;;
18793;SDS011;29610;49.022;12.114;2022-08-21T11:17:27;25.50;;;14.23;;
18793;SDS011;29610;49.022;12.114;2022-08-21T11:20:07;24.33;;;12.73;;
18793;SDS011;29610;49.022;12.114;2022-08-21T11:22:44;23.77;;;13.07;;
18793;SDS011;29610;49.022;12.114;2022-08-21T11:25:30;26.37;;;12.43;;
18793;SDS011;29610;49.022;12.114;2022-08-21T11:28:04;27.43;;;11.83;;
18793;SDS011;29610;49.022;12.114;2022-08-21T11:30:46;28.07;;;15.33;;
18793;SDS011;29610;49.022;12.114;2022-08-21T11:33:39;28.43;;;14.97;;
18793;SDS011;29610;49.022;12.114;2022-08-21T11:36:23;29.00;;;15.53;;
18793;SDS011;29610;49.022;12.114;2022-08-21T11:39:06;32.30;;;16.47;;
18793;SDS011;29610;49.022;12.114;2022-08-21T11:41:52;25.57;;;15.47;;
18793;SDS011;29610;49.022;12.114;2022-08-21T11:44:38;23.93;;;13.33;;
18793;SDS011;29610;49.022;12.114;2022-08-21T11:47:19;29.13;;;15.40;;
18793;SDS011;29610;49.022;12.114;2022-08-21T11:50:05;30.93;;;15.17;;
18793;SDS011;29610;49.022;12.114;2022-08-21T11:53:01;31.57;;;17.53;;
18793;SDS011;29610;49.022;12.114;2022-08-21T11:55:41;28.30;;;14.73;;
18793;SDS011;29610;49.022;12.114;2022-08-21T11:58:17;32.50;;;15.87;;
18793;SDS011;29610;49.022;12.114;2022-08-21T12:00:54;28.47;;;17.13;;
18793;SDS011;29610;49.022;12.114;2022-08-21T12:03:32;29.60;;;14.30;;
18793;SDS011;29610;49.022;12.114;2022-08-21T12:06:10;26.20;;;12.97;;
18793;SDS011;29610;49.022;12.114;2022-08-21T12:08:56;25.17;;;13.27;;
18793;SDS011;29610;49.022;12.114;2022-08-21T12:11:28;28.60;;;14.37;;
18793;SDS011;29610;49.022;12.114;2022-08-21T12:13:58;25.37;;;14.50;;
18793;SDS011;29610;49.022;12.114;2022-08-21T12:16:41;25.43;;;13.43;;
18793;SDS011;29610;49.022;12.114;2022-08-21T12:19:13;24.57;;;13.30;;
18793;SDS011;29610;49.022;12.114;2022-08-21T12:22:08;27.23;;;10.87;;
18793;SDS011;29610;49.022;12.114;2022-08-21T12:24:41;20.47;;;10.30;;
18793;SDS011;29610;49.022;12.114;2022-08-21T12:27:14;24.30;;;10.30;;
18793;SDS011;29610;49.022;12.114;2022-08-21T12:29:54;20.43;;;9.30;;
18793;SDS011;29610;49.022;12.114;2022-08-21T12:32:28;19.07;;;8.43;;
18793;SDS011;29610;49.022;12.114;2022-08-21T12:35:12;19.93;;;8.27;;
18793;SDS011;29610;49.022;12.114;2022-08-21T12:37:56;21.43;;;9.50;;
18793;SDS011;29610;49.022;12.114;2022-08-21T12:40:40;20.70;;;9.87;;
18793;SDS011;29610;49.022;12.114;2022-08-21T12:43:15;19.70;;;8.77;;
18793;SDS011;29610;49.022;12.114;2022-08-21T12:45:49;18.60;;;8.20;;
18793;SDS011;29610;49.022;12.114;2022-08-21T12:48:20;18.07;;;7.77;;
18793;SDS011;29610;49.022;12.114;2022-08-21T12:50:56;17.00;;;7.50;;
18793;SDS011;29610;49.022;12.114;2022-08-21T12:53:40;19.17;;;8.83;;
18793;SDS011;29610;49.022;12.114;2022-08-21T12:56:16;17.50;;;7.50;;
18793;SDS011;29610;49.022;12.114;2022-08-21T12:58:47;17.80;;;6.97;;
18793;SDS011;29610;49.022;12.114;2022-08-21T13:01:23;18.70;;;5.53;;
18793;SDS011;29610;49.022;12.114;2022-08-21T13:03:58;14.67;;;5.00;;
18793;SDS011;29610;49.022;12.114;2022-08-21T13:06:36;14.67;;;5.17;;
18793;SDS011;29610;49.022;12.114;2022-08-21T13:09:11;15.73;;;5.23;;
18793;SDS011;29610;49.022;12.114;2022-08-21T13:11:43;17.13;;;5.60;;
18793;SDS011;29610;49.022;12.114;2022-08-21T13:14:20;15.73;;;4.77;;
18793;SDS011;29610;49.022;12.114;2022-08-21T13:17:10;15.53;;;5.17;;
18793;SDS011;29610;49.022;12.114;2022-08-21T13:19:52;16.07;;;5.73;;
18793;SDS011;29610;49.022;12.114;2022-08-21T13:22:23;14.37;;;4.77;;
18793;SDS011;29610;49.022;12.114;2022-08-21T13:25:02;14.53;;;4.90;;
18793;SDS011;29610;49.022;12.114;2022-08-21T13:27:38;13.47;;;4.40;;
18793;SDS011;29610;49.022;12.114;2022-08-21T13:30:10;13.97;;;4.40;;
18793;SDS011;29610;49.022;12.114;2022-08-21T13:32:47;15.83;;;4.60;;
18793;SDS011;29610;49.022;12.114;2022-08-21T13:35:20;15.53;;;4.33;;
18793;SDS011;29610;49.022;12.114;2022-08-21T13:37:53;13.90;;;3.67;;
18793;SDS011;29610;49.022;12.114;2022-08-21T13:40:25;15.20;;;4.20;;
18793;SDS011;29610;49.022;12.114;2022-08-21T13:42:57;17.00;;;5.03;;
18793;SDS011;29610;49.022;12.114;2022-08-21T13:45:29;16.17;;;4.60;;
18793;SDS011;29610;49.022;12.114;2022-08-21T13:48:00;21.83;;;4.07;;
18793;SDS011;29610;49.022;12.114;2022-08-21T13:50:33;16.43;;;3.93;;
18793;SDS011;29610;49.022;12.114;2022-08-21T13:53:06;13.70;;;4.00;;
18793;SDS011;29610;49.022;12.114;2022-08-21T13:55:50;15.57;;;4.00;;
18793;SDS011;29610;49.022;12.114;2022-08-21T13:58:26;13.47;;;4.47;;
18793;SDS011;29610;49.022;12.114;2022-08-21T14:00:58;13.30;;;3.80;;
18793;SDS011;29610;49.022;12.114;2022-08-21T14:03:34;13.53;;;4.07;;
18793;SDS011;29610;49.022;12.114;2022-08-21T14:06:12;14.37;;;4.73;;
18793;SDS011;29610;49.022;12.114;2022-08-21T14:08:47;14.30;;;4.37;;
18793;SDS011;29610;49.022;12.114;2022-08-21T14:11:22;15.07;;;4.50;;
18793;SDS011;29610;49.022;12.114;2022-08-21T14:13:56;14.07;;;3.93;;
18793;SDS011;29610;49.022;12.114;2022-08-21T14:16:40;13.80;;;4.27;;
18793;SDS011;29610;49.022;12.114;2022-08-21T14:19:17;14.80;;;4.53;;
18793;SDS011;29610;49.022;12.114;2022-08-21T14:21:48;15.73;;;5.60;;
18793;SDS011;29610;49.022;12.114;2022-08-21T14:24:25;15.73;;;5.10;;
18793;SDS011;29610;49.022;12.114;2022-08-21T14:27:03;14.20;;;4.17;;
18793;SDS011;29610;49.022;12.114;2022-08-21T14:29:37;15.70;;;4.80;;
18793;SDS011;29610;49.022;12.114;2022-08-21T14:32:11;13.90;;;4.20;;
18793;SDS011;29610;49.022;12.114;2022-08-21T14:34:51;15.00;;;4.77;;
18793;SDS011;29610;49.022;12.114;2022-08-21T14:37:23;14.00;;;4.57;;
18793;SDS011;29610;49.022;12.114;2022-08-21T14:39:55;14.87;;;4.53;;
18793;SDS011;29610;49.022;12.114;2022-08-21T14:42:26;18.70;;;5.10;;
18793;SDS011;29610;49.022;12.114;2022-08-21T14:44:57;15.57;;;4.83;;
18793;SDS011;29610;49.022;12.114;2022-08-21T14:47:32;19.03;;;5.07;;
18793;SDS011;29610;49.022;12.114;2022-08-21T14:50:01;15.23;;;4.97;;